.
WxDataArchive / Data Records for 2013-12-19
2013-12-18 December 2013 2013-12-20

Data Records for Thursday, 19 December 2013

Time	Temp	Chill	HIndex	Humid	Dewpt	 Wind 	HiWind	WindDir	Rain 	Barom 
-----	----	-----	------	-----	-----	------	------	-------	-----	----- 
00:00	35.3	35.3	35.3	54	20.3	1	4	248	0.00	29.930 
00:05	35.3	35.3	35.3	53	19.9	2	5	248	0.00	29.930 
00:10	35.5	35.5	35.5	53	20.1	2	6	248	0.00	29.930 
00:15	35.6	35.6	35.6	53	20.2	2	6	292	0.00	29.923 
00:20	35.6	35.6	35.6	53	20.2	1	6	248	0.00	29.923 
00:25	35.6	35.6	35.6	53	20.2	2	10	270	0.00	29.923 
00:30	35.6	35.6	35.6	53	20.2	3	7	248	0.00	29.921 
00:35	35.6	35.6	35.6	53	20.2	2	7	248	0.00	29.921 
00:40	35.5	35.5	35.5	53	20.1	2	7	248	0.00	29.921 
00:45	35.3	35.3	35.3	54	20.3	1	4	248	0.00	29.919 
00:50	35.2	35.2	35.2	54	20.2	2	11	248	0.00	29.919 
00:55	35.0	35.0	35.0	54	20.1	2	7	270	0.00	29.919 
01:00	34.9	34.9	34.9	54	20.0	2	7	248	0.00	29.915 
01:05	34.9	34.9	34.9	54	20.0	2	7	248	0.00	29.915 
01:10	34.9	34.9	34.9	55	20.4	1	5	248	0.00	29.915 
01:15	34.6	34.6	34.6	55	20.1	1	5	248	0.00	29.904 
01:20	34.6	34.6	34.6	55	20.1	2	7	248	0.00	29.904 
01:25	34.4	34.4	34.4	55	19.9	2	5	248	0.00	29.904 
01:30	34.3	34.3	34.3	56	20.3	1	5	248	0.00	29.906 
01:35	34.1	34.1	34.1	56	20.1	2	6	248	0.00	29.906 
01:40	34.0	34.0	34.0	56	20.0	1	4	248	0.00	29.906 
01:45	33.8	33.8	33.8	57	20.2	1	5	248	0.00	29.904 
01:50	33.7	33.7	33.7	57	20.1	1	4	248	0.00	29.904 
01:55	33.5	33.5	33.5	58	20.3	1	4	248	0.00	29.904 
02:00	33.4	33.4	33.4	58	20.2	0	3	248	0.00	29.903 
02:05	33.4	33.4	33.4	58	20.2	1	3	248	0.00	29.903 
02:10	33.2	33.2	33.2	58	20.0	1	4	248	0.00	29.903 
02:15	33.2	33.2	33.2	58	20.0	1	4	248	0.00	29.907 
02:20	33.4	33.4	33.4	58	20.2	1	3	248	0.00	29.907 
02:25	33.4	33.4	33.4	58	20.2	1	5	248	0.00	29.907 
02:30	33.5	33.5	33.5	59	20.7	1	4	248	0.00	29.908 
02:35	33.5	33.5	33.5	59	20.7	1	4	248	0.00	29.908 
02:40	33.5	33.5	33.5	59	20.7	1	4	248	0.00	29.908 
02:45	33.7	33.7	33.7	59	20.9	1	5	225	0.00	29.909 
02:50	33.7	33.7	33.7	59	20.9	1	5	225	0.00	29.909 
02:55	33.7	33.7	33.7	60	21.3	1	4	248	0.00	29.909 
03:00	33.8	33.8	33.8	60	21.4	1	4	248	0.00	29.914 
03:05	34.0	34.0	34.0	60	21.6	1	3	248	0.00	29.914 
03:10	34.0	34.0	34.0	61	22.0	1	5	248	0.00	29.914 
03:15	34.3	34.3	34.3	61	22.3	1	5	248	0.00	29.916 
03:20	34.3	34.3	34.3	61	22.3	0	4	248	0.00	29.916 
03:25	34.3	34.3	34.3	62	22.7	1	6	248	0.00	29.916 
03:30	34.4	34.4	34.4	62	22.7	0	3	68	0.00	29.916 
03:35	34.4	34.4	34.4	62	22.7	1	2	248	0.00	29.916 
03:40	34.4	34.4	34.4	62	22.7	1	3	248	0.00	29.916 
03:45	34.4	34.4	34.4	63	23.1	1	6	248	0.00	29.918 
03:50	34.6	34.6	34.6	63	23.3	1	4	225	0.00	29.918 
03:55	34.7	34.7	34.7	63	23.4	1	3	225	0.00	29.918 
04:00	34.6	34.6	34.6	63	23.3	0	3	225	0.00	29.921 
04:05	34.6	34.6	34.6	64	23.7	0	2	225	0.00	29.921 
04:10	34.4	34.4	34.4	64	23.5	0	2	225	0.00	29.921 
04:15	34.6	34.6	34.6	65	24.1	1	3	225	0.00	29.921 
04:20	34.6	34.6	34.6	65	24.1	0	2	248	0.00	29.921 
04:25	34.7	34.7	34.7	65	24.2	1	4	248	0.00	29.921 
04:30	34.7	34.7	34.7	66	24.5	0	4	248	0.00	29.922 
04:35	34.7	34.7	34.7	66	24.5	1	3	248	0.00	29.922 
04:40	34.7	34.7	34.7	66	24.5	1	3	248	0.00	29.922 
04:45	34.9	34.9	34.9	67	25.1	1	3	248	0.00	29.923 
04:50	34.9	34.9	34.9	67	25.1	0	2	248	0.00	29.923 
04:55	34.9	34.9	34.9	67	25.1	1	3	248	0.00	29.923 
05:00	34.9	34.9	34.9	68	25.4	1	3	248	0.00	29.925 
05:05	34.9	34.9	34.9	69	25.8	1	5	248	0.00	29.925 
05:10	35.0	35.0	35.0	69	25.9	0	2	248	0.00	29.925 
05:15	35.0	35.0	35.0	69	25.9	1	3	248	0.00	29.927 
05:20	35.2	35.2	35.2	69	26.1	1	3	248	0.00	29.927 
05:25	35.2	35.2	35.2	69	26.1	1	4	248	0.00	29.927 
05:30	35.2	35.2	35.2	69	26.1	0	3	248	0.00	29.919 
05:35	35.3	35.3	35.3	69	26.2	1	4	248	0.00	29.919 
05:40	35.3	35.3	35.3	70	26.5	0	3	248	0.00	29.919 
05:45	35.2	35.2	35.2	70	26.4	0	2	248	0.00	29.929 
05:50	35.2	35.2	35.2	70	26.4	1	4	248	0.00	29.929 
05:55	35.2	35.2	35.2	71	26.8	0	3	248	0.00	29.929 
06:00	35.2	35.2	35.2	71	26.8	0	3	248	0.00	29.933 
06:05	35.2	35.2	35.2	71	26.8	0	2	248	0.00	29.933 
06:10	35.0	35.0	35.0	71	26.6	0	3	248	0.00	29.933 
06:15	35.0	35.0	35.0	71	26.6	0	3	248	0.00	29.935 
06:20	34.9	34.9	34.9	72	26.8	0	2	248	0.00	29.935 
06:25	34.9	34.9	34.9	72	26.8	0	4	248	0.00	29.935 
06:30	34.7	34.7	34.7	72	26.6	0	2	248	0.00	29.935 
06:35	34.6	34.6	34.6	73	26.9	0	2	248	0.00	29.935 
06:40	34.6	34.6	34.6	73	26.9	0	2	248	0.00	29.935 
06:45	34.6	34.6	34.6	73	26.9	0	1	248	0.00	29.934 
06:50	34.6	34.6	34.6	74	27.2	0	1	248	0.00	29.934 
06:55	34.6	34.6	34.6	74	27.2	0	2	248	0.00	29.934 
07:00	34.6	34.6	34.6	74	27.2	0	1	248	0.00	29.935 
07:05	34.4	34.4	34.4	75	27.3	0	2	248	0.00	29.935 
07:10	34.3	34.3	34.3	75	27.2	0	1	248	0.00	29.935 
07:15	34.3	34.3	34.3	76	27.5	0	2	248	0.00	29.941 
07:20	34.3	34.3	34.3	76	27.5	0	1	248	0.00	29.941 
07:25	34.1	34.1	34.1	76	27.3	0	2	248	0.00	29.941 
07:30	34.1	34.1	34.1	77	27.7	0	1	248	0.00	29.945 
07:35	34.1	34.1	34.1	77	27.7	0	2	248	0.00	29.945 
07:40	34.1	34.1	34.1	77	27.7	0	1	248	0.00	29.945 
07:45	34.1	34.1	34.1	78	28.0	0	3	248	0.00	29.948 
07:50	34.3	34.3	34.3	79	28.5	0	2	248	0.00	29.948 
07:55	34.6	34.6	34.6	79	28.8	0	2	248	0.00	29.948 
08:00	34.7	34.7	34.7	79	28.9	0	1	248	0.00	29.947 
08:05	34.9	34.9	34.9	79	29.1	0	3	248	0.00	29.947 
08:10	35.0	35.0	35.0	79	29.2	0	1	248	0.00	29.947 
08:15	35.2	35.2	35.2	80	29.7	0	2	248	0.00	29.948 
08:20	35.5	35.5	35.5	80	30.0	0	2	248	0.00	29.948 
08:25	35.6	35.6	35.6	80	30.1	0	3	248	0.00	29.948 
08:30	35.8	35.8	35.8	80	30.2	0	1	248	0.00	29.949 
08:35	35.9	35.9	35.9	80	30.3	0	1	248	0.00	29.949 
08:40	36.0	36.0	36.0	80	30.4	0	2	248	0.00	29.949 
08:45	36.3	36.3	36.3	80	30.7	0	2	248	0.00	29.959 
08:50	36.5	36.5	36.5	79	30.6	0	1	248	0.00	29.959 
08:55	36.6	36.6	36.6	79	30.7	0	2	248	0.00	29.959 
09:00	36.8	36.8	36.8	79	30.9	0	1	248	0.00	29.964 
09:05	37.0	37.0	37.0	79	31.1	0	2	248	0.00	29.964 
09:10	37.2	37.2	37.2	79	31.3	0	1	248	0.00	29.964 
09:15	37.3	37.3	37.3	79	31.4	0	1	248	0.00	29.965 
09:20	37.5	37.5	37.5	78	31.3	0	2	248	0.00	29.965 
09:25	37.8	37.8	37.8	78	31.6	0	2	248	0.00	29.965 
09:30	37.9	37.9	37.9	78	31.7	0	1	248	0.00	29.973 
09:35	38.0	38.0	38.0	77	31.4	0	1	248	0.00	29.973 
09:40	38.3	38.3	38.3	77	31.7	0	1	248	0.00	29.973 
09:45	38.5	38.5	38.5	76	31.6	0	2	248	0.00	29.974 
09:50	38.8	38.8	38.8	76	31.9	0	2	248	0.00	29.974 
09:55	39.1	39.1	39.1	75	31.9	0	1	248	0.00	29.974 
10:00	39.5	39.5	39.5	75	32.2	0	1	248	0.00	29.973 
10:05	39.8	39.8	39.8	74	32.2	0	2	248	0.00	29.973 
10:10	40.2	40.2	40.2	73	32.2	0	2	248	0.00	29.973 
10:15	40.5	40.5	40.5	73	32.5	0	3	248	0.00	29.979 
10:20	40.6	40.6	40.6	73	32.6	1	5	248	0.00	29.979 
10:25	40.9	40.9	40.9	72	32.6	1	4	248	0.00	29.979 
10:30	41.1	41.1	41.1	72	32.8	1	4	248	0.00	29.982 
10:35	41.2	41.2	41.2	72	32.9	0	2	225	0.01	29.982 
10:40	41.3	41.3	41.3	71	32.6	0	3	225	0.00	29.982 
10:45	41.3	41.3	41.3	71	32.6	1	3	225	0.00	29.982 
10:50	41.3	41.3	41.3	71	32.6	1	4	248	0.01	29.982 
10:55	41.2	41.2	41.2	71	32.5	1	5	248	0.00	29.982 
11:00	41.3	41.3	41.3	71	32.6	0	3	248	0.01	29.982 
11:05	41.5	41.5	41.5	71	32.8	0	2	248	0.00	29.982 
11:10	41.8	41.8	41.8	70	32.7	1	5	225	0.01	29.982 
11:15	42.2	42.2	42.2	70	33.1	1	4	225	0.01	29.981 
11:20	42.5	42.5	42.5	69	33.1	1	5	248	0.01	29.981 
11:25	42.8	42.8	42.8	69	33.3	1	5	248	0.01	29.981 
11:30	43.1	43.1	43.1	69	33.6	0	3	248	0.01	29.979 
11:35	43.3	43.3	43.3	68	33.5	1	4	248	0.01	29.979 
11:40	43.5	43.5	43.5	67	33.3	2	5	248	0.00	29.979 
11:45	43.6	43.6	43.6	67	33.4	1	9	248	0.01	29.979 
11:50	43.8	43.8	43.8	67	33.6	1	3	248	0.01	29.979 
11:55	44.1	44.1	44.1	67	33.9	1	4	248	0.01	29.979 
12:00	44.1	44.1	44.1	66	33.5	1	3	248	0.01	29.980 
12:05	44.3	44.3	44.3	66	33.7	1	4	248	0.01	29.980 
12:10	44.3	44.3	44.3	66	33.7	1	4	248	0.01	29.980 
12:15	44.3	44.3	44.3	66	33.7	1	5	248	0.01	29.974 
12:20	44.3	44.3	44.3	66	33.7	0	3	248	0.01	29.974 
12:25	44.3	44.3	44.3	66	33.7	1	4	248	0.01	29.974 
12:30	44.3	44.3	44.3	66	33.7	1	3	270	0.01	29.971 
12:35	44.3	44.3	44.3	67	34.0	1	4	248	0.01	29.971 
12:40	44.5	44.5	44.5	67	34.2	1	4	248	0.01	29.971 
12:45	44.5	44.5	44.5	67	34.2	1	3	248	0.01	29.969 
12:50	44.5	44.5	44.5	67	34.2	1	4	248	0.01	29.969 
12:55	44.5	44.5	44.5	67	34.2	0	3	248	0.01	29.969 
13:00	44.5	44.5	44.5	67	34.2	1	3	225	0.00	29.963 
13:05	44.6	44.6	44.6	67	34.3	0	2	225	0.01	29.963 
13:10	44.6	44.6	44.6	67	34.3	0	2	225	0.01	29.963 
13:15	44.6	44.6	44.6	67	34.3	0	1	225	0.01	29.961 
13:20	44.6	44.6	44.6	67	34.3	0	2	225	0.00	29.961 
13:25	44.6	44.6	44.6	67	34.3	0	2	225	0.01	29.961 
13:30	44.5	44.5	44.5	67	34.2	0	2	225	0.01	29.959 
13:35	44.5	44.5	44.5	67	34.2	0	2	225	0.00	29.959 
13:40	44.5	44.5	44.5	67	34.2	0	3	225	0.01	29.959 
13:45	44.5	44.5	44.5	67	34.2	0	2	225	0.01	29.955 
13:50	44.3	44.3	44.3	68	34.4	0	3	225	0.01	29.955 
13:55	44.2	44.2	44.2	68	34.3	0	2	225	0.00	29.955 
14:00	44.2	44.2	44.2	68	34.3	0	4	225	0.01	29.955 
14:05	44.1	44.1	44.1	68	34.2	0	1	225	0.00	29.955 
14:10	44.1	44.1	44.1	68	34.2	0	2	225	0.01	29.955 
14:15	44.1	44.1	44.1	68	34.2	0	3	225	0.01	29.947 
14:20	43.9	43.9	43.9	69	34.4	0	2	225	0.00	29.947 
14:25	43.8	43.8	43.8	69	34.3	0	1	225	0.01	29.947 
14:30	43.5	43.5	43.5	69	34.0	0	1	225	0.00	29.947 
14:35	43.3	43.3	43.3	69	33.8	0	1	225	0.00	29.947 
14:40	43.3	43.3	43.3	69	33.8	0	1	225	0.01	29.947 
14:45	43.2	43.2	43.2	70	34.1	0	1	225	0.00	29.953 
14:50	43.1	43.1	43.1	70	34.0	0	1	225	0.01	29.953 
14:55	42.9	42.9	42.9	70	33.8	0	2	225	0.00	29.953 
15:00	42.8	42.8	42.8	70	33.7	0	1	225	0.01	29.949 
15:05	42.6	42.6	42.6	71	33.9	0	1	225	0.00	29.949 
15:10	42.5	42.5	42.5	71	33.8	0	1	225	0.00	29.949 
15:15	42.5	42.5	42.5	71	33.8	0	0	---	0.01	29.951 
15:20	42.5	42.5	42.5	71	33.8	0	2	225	0.00	29.951 
15:25	42.3	42.3	42.3	71	33.6	0	0	---	0.00	29.951 
15:30	42.3	42.3	42.3	71	33.6	0	0	---	0.01	29.956 
15:35	42.2	42.2	42.2	72	33.8	0	0	---	0.00	29.956 
15:40	42.1	42.1	42.1	72	33.7	0	1	225	0.00	29.956 
15:45	41.9	41.9	41.9	72	33.5	0	0	---	0.00	29.959 
15:50	41.9	41.9	41.9	72	33.5	0	1	225	0.01	29.959 
15:55	41.8	41.8	41.8	73	33.8	0	0	---	0.00	29.959 
16:00	41.6	41.6	41.6	73	33.6	0	1	225	0.00	29.955 
16:05	41.6	41.6	41.6	73	33.6	0	0	---	0.01	29.955 
16:10	41.5	41.5	41.5	73	33.5	0	1	225	0.00	29.955 
16:15	41.5	41.5	41.5	73	33.5	0	0	---	0.00	29.954 
16:20	41.5	41.5	41.5	74	33.8	0	1	225	0.00	29.954 
16:25	41.3	41.3	41.3	74	33.6	0	0	---	0.00	29.954 
16:30	41.2	41.2	41.2	74	33.6	0	1	225	0.01	29.952 
16:35	41.1	41.1	41.1	74	33.5	0	1	225	0.00	29.952 
16:40	41.1	41.1	41.1	75	33.8	0	2	225	0.00	29.952 
16:45	41.1	41.1	41.1	75	33.8	0	1	225	0.00	29.952 
16:50	40.9	40.9	40.9	75	33.6	0	1	225	0.01	29.952 
16:55	40.9	40.9	40.9	75	33.6	0	1	225	0.00	29.952 
17:00	40.8	40.8	40.8	76	33.8	0	1	225	0.00	29.954 
17:05	40.8	40.8	40.8	75	33.5	0	1	225	0.00	29.954 
17:10	40.6	40.6	40.6	76	33.6	0	1	225	0.00	29.954 
17:15	40.5	40.5	40.5	76	33.5	0	1	225	0.00	29.951 
17:20	40.2	40.2	40.2	77	33.6	0	1	225	0.00	29.951 
17:25	40.1	40.1	40.1	77	33.5	0	1	225	0.01	29.951 
17:30	40.1	40.1	40.1	77	33.5	0	1	225	0.00	29.948 
17:35	39.9	39.9	39.9	77	33.3	0	1	225	0.00	29.948 
17:40	39.8	39.8	39.8	77	33.2	0	1	225	0.00	29.948 
17:45	39.8	39.8	39.8	78	33.5	0	1	225	0.00	29.950 
17:50	39.6	39.6	39.6	78	33.3	0	1	225	0.00	29.950 
17:55	39.5	39.5	39.5	78	33.2	0	1	225	0.01	29.950 
18:00	39.5	39.5	39.5	78	33.2	0	1	225	0.00	29.947 
18:05	39.3	39.3	39.3	79	33.3	0	1	225	0.00	29.947 
18:10	39.5	39.5	39.5	79	33.5	0	1	225	0.00	29.947 
18:15	39.3	39.3	39.3	79	33.3	0	0	---	0.00	29.950 
18:20	39.3	39.3	39.3	79	33.3	0	1	225	0.00	29.950 
18:25	39.3	39.3	39.3	79	33.3	0	1	225	0.00	29.950 
18:30	39.3	39.3	39.3	79	33.3	0	2	225	0.01	29.948 
18:35	39.3	39.3	39.3	79	33.3	0	2	225	0.00	29.948 
18:40	39.3	39.3	39.3	79	33.3	0	2	135	0.00	29.948 
18:45	39.5	39.5	39.5	79	33.5	0	2	135	0.00	29.941 
18:50	39.5	39.5	39.5	79	33.5	0	1	135	0.00	29.941 
18:55	39.3	39.3	39.3	79	33.3	0	1	135	0.00	29.941 
19:00	39.3	39.3	39.3	79	33.3	0	1	135	0.00	29.937 
19:05	39.3	39.3	39.3	79	33.3	0	1	135	0.01	29.937 
19:10	39.2	39.2	39.2	79	33.2	0	1	135	0.00	29.937 
19:15	39.1	39.1	39.1	80	33.5	0	0	---	0.00	29.936 
19:20	39.1	39.1	39.1	80	33.5	0	1	135	0.00	29.936 
19:25	38.9	38.9	38.9	80	33.3	0	1	135	0.00	29.936 
19:30	38.9	38.9	38.9	80	33.3	0	1	135	0.00	29.936 
19:35	38.8	38.8	38.8	80	33.2	0	0	---	0.00	29.936 
19:40	38.6	38.6	38.6	81	33.3	0	0	---	0.00	29.936 
19:45	38.5	38.5	38.5	81	33.2	0	0	---	0.00	29.934 
19:50	38.3	38.3	38.3	81	33.0	0	0	---	0.00	29.934 
19:55	38.2	38.2	38.2	81	32.9	0	0	---	0.01	29.934 
20:00	38.2	38.2	38.2	82	33.2	0	0	---	0.00	29.931 
20:05	38.2	38.2	38.2	82	33.2	0	0	---	0.00	29.931 
20:10	38.2	38.2	38.2	82	33.2	0	1	135	0.00	29.931 
20:15	38.2	38.2	38.2	82	33.2	0	0	---	0.00	29.924 
20:20	38.2	38.2	38.2	82	33.2	0	0	---	0.00	29.924 
20:25	38.2	38.2	38.2	82	33.2	0	0	---	0.00	29.924 
20:30	38.2	38.2	38.2	82	33.2	0	1	135	0.00	29.918 
20:35	38.2	38.2	38.2	83	33.5	0	0	---	0.00	29.918 
20:40	38.2	38.2	38.2	83	33.5	0	0	---	0.00	29.918 
20:45	38.2	38.2	38.2	83	33.5	0	0	---	0.00	29.917 
20:50	38.2	38.2	38.2	83	33.5	0	0	---	0.01	29.917 
20:55	38.0	38.0	38.0	83	33.3	0	0	---	0.00	29.917 
21:00	38.0	38.0	38.0	83	33.3	0	0	---	0.00	29.911 
21:05	38.0	38.0	38.0	83	33.3	0	0	---	0.00	29.911 
21:10	37.9	37.9	37.9	83	33.2	0	1	135	0.00	29.911 
21:15	37.9	37.9	37.9	83	33.2	0	0	---	0.00	29.903 
21:20	37.8	37.8	37.8	84	33.4	0	0	---	0.00	29.903 
21:25	37.6	37.6	37.6	84	33.2	0	0	---	0.00	29.903 
21:30	37.6	37.6	37.6	84	33.2	0	0	---	0.00	29.899 
21:35	37.6	37.6	37.6	84	33.2	0	0	---	0.00	29.899 
21:40	37.8	37.8	37.8	85	33.7	0	0	---	0.00	29.899 
21:45	38.0	38.0	38.0	85	33.9	0	0	---	0.00	29.899 
21:50	38.0	38.0	38.0	85	33.9	0	0	---	0.00	29.899 
21:55	38.2	38.2	38.2	84	33.8	0	0	---	0.01	29.899 
22:00	38.2	38.2	38.2	85	34.1	0	0	---	0.00	29.890 
22:05	38.3	38.3	38.3	84	33.9	0	0	---	0.00	29.890 
22:10	38.6	38.6	38.6	85	34.5	0	0	---	0.00	29.890 
22:15	38.8	38.8	38.8	84	34.4	0	0	---	0.00	29.883 
22:20	38.9	38.9	38.9	85	34.8	0	1	135	0.00	29.883 
22:25	39.1	39.1	39.1	84	34.7	0	0	---	0.00	29.883 
22:30	39.3	39.3	39.3	84	34.9	0	1	135	0.00	29.882 
22:35	39.5	39.5	39.5	84	35.1	0	0	---	0.00	29.882 
22:40	39.6	39.6	39.6	84	35.2	0	0	---	0.00	29.882 
22:45	39.8	39.8	39.8	84	35.4	0	1	135	0.00	29.881 
22:50	39.9	39.9	39.9	83	35.2	0	1	135	0.01	29.881 
22:55	39.9	39.9	39.9	83	35.2	0	0	---	0.00	29.881 
23:00	40.1	40.1	40.1	83	35.4	0	0	---	0.00	29.878 
23:05	40.1	40.1	40.1	83	35.4	0	0	---	0.00	29.878 
23:10	40.1	40.1	40.1	83	35.4	0	0	---	0.00	29.878 
23:15	40.2	40.2	40.2	83	35.5	0	1	135	0.00	29.865 
23:20	40.3	40.3	40.3	83	35.6	0	1	135	0.00	29.865 
23:25	40.3	40.3	40.3	83	35.6	0	0	---	0.00	29.865 
23:30	40.3	40.3	40.3	83	35.6	0	0	---	0.00	29.864 
23:35	40.3	40.3	40.3	83	35.6	0	1	135	0.00	29.864 
23:40	40.3	40.3	40.3	83	35.6	0	0	---	0.00	29.864 
23:45	40.3	40.3	40.3	83	35.6	0	0	---	0.00	29.863 
23:50	40.3	40.3	40.3	83	35.6	0	1	135	0.00	29.863 
23:55	40.5	40.5	40.5	84	36.1	0	1	135	0.01	29.863 

CoCoRaHS
IN-AL-39
A2 Web Hosting
Creative Commons License
GoDaddy
search engine by freefind advanced

loaded 2018-11-14 04:55:23 • last modified 2010-11-18 10:43:29
Privacy PolicyDisclaimer
• wx.awcolley.com is powered by PmWiki v.2002016 •
• all content (unless otherwise noted) © 2018 A W Colley